createdAt,value
2023-04-12T00:01:28.890Z,6.13
2023-04-12T00:06:33.189Z,6.02
2023-04-12T00:11:37.210Z,5.96
2023-04-12T00:16:39.823Z,5.89
2023-04-12T00:21:42.300Z,5.82
2023-04-12T00:26:46.171Z,5.77
2023-04-12T00:31:48.737Z,5.73
2023-04-12T00:36:51.449Z,5.69
2023-04-12T00:41:56.837Z,5.60
2023-04-12T00:47:00.102Z,5.45
2023-04-12T00:52:08.666Z,5.35
2023-04-12T00:57:12.747Z,5.25
2023-04-12T01:02:17.354Z,5.15
2023-04-12T01:07:32.688Z,5.02
2023-04-12T01:12:46.746Z,4.93
2023-04-12T01:17:58.137Z,4.86
2023-04-12T01:23:15.919Z,4.82
2023-04-12T01:28:23.653Z,4.78
2023-04-12T01:33:31.234Z,4.73
2023-04-12T01:38:34.465Z,4.67
2023-04-12T01:43:42.832Z,4.60
2023-04-12T01:48:50.577Z,4.54
2023-04-12T01:53:59.934Z,4.48
2023-04-12T01:59:05.225Z,4.46
2023-04-12T02:04:10.670Z,4.44
2023-04-12T02:09:14.331Z,4.42
2023-04-12T02:14:19.093Z,4.35
2023-04-12T02:19:22.057Z,4.25
2023-04-12T02:24:24.601Z,4.23
2023-04-12T02:29:28.451Z,4.18
2023-04-12T02:34:34.099Z,4.20
2023-04-12T02:39:37.202Z,4.00
2023-04-12T02:44:41.904Z,3.80
2023-04-12T02:49:44.359Z,3.75
2023-04-12T02:54:47.484Z,3.75
2023-04-12T02:59:52.979Z,3.78
2023-04-12T03:04:57.003Z,3.78
2023-04-12T03:09:59.499Z,3.72
2023-04-12T03:15:03.354Z,3.69
2023-04-12T03:20:10.420Z,3.70
2023-04-12T03:25:13.312Z,3.69
2023-04-12T03:30:17.358Z,3.70
2023-04-12T03:35:20.106Z,3.71
2023-04-12T03:40:22.725Z,3.74
2023-04-12T03:45:26.795Z,3.75
2023-04-12T03:50:31.788Z,3.77
2023-04-12T03:55:34.311Z,3.80
2023-04-12T04:00:38.140Z,3.81
2023-04-12T04:05:40.697Z,3.78
2023-04-12T04:10:43.194Z,3.74
2023-04-12T04:15:47.226Z,3.74
2023-04-12T04:20:49.724Z,3.75
2023-04-12T04:25:53.764Z,3.74
2023-04-12T04:30:57.693Z,3.69
2023-04-12T04:36:00.862Z,3.68
2023-04-12T04:41:04.436Z,3.70
2023-04-12T04:46:08.472Z,3.69
2023-04-12T04:51:11.011Z,3.72
2023-04-12T04:56:13.522Z,3.76
2023-04-12T05:01:17.751Z,3.81
2023-04-12T05:06:20.365Z,3.83
2023-04-12T05:11:23.001Z,3.86
2023-04-12T05:16:26.875Z,3.89
2023-04-12T05:21:29.542Z,3.91
2023-04-12T05:26:34.232Z,3.94
2023-04-12T05:31:38.039Z,3.99
2023-04-12T05:36:41.017Z,4.07
2023-04-12T05:41:43.500Z,4.17
2023-04-12T05:46:47.464Z,4.31
2023-04-12T05:51:50.077Z,4.45
2023-04-12T05:56:52.911Z,4.60
2023-04-12T06:01:56.926Z,4.80
2023-04-12T06:06:59.449Z,4.98
2023-04-12T06:12:02.718Z,5.20
2023-04-12T06:17:06.565Z,5.44
2023-04-12T06:22:09.939Z,5.69
2023-04-12T06:27:12.435Z,5.95
2023-04-12T06:32:16.300Z,6.22
2023-04-12T06:37:18.778Z,6.50
2023-04-12T06:42:21.502Z,6.79
2023-04-12T06:47:25.951Z,7.11
2023-04-12T06:52:28.572Z,7.42
2023-04-12T06:57:31.044Z,7.75
2023-04-12T07:02:35.015Z,8.06
2023-04-12T07:07:37.584Z,8.34
2023-04-12T07:12:40.242Z,8.63
2023-04-12T07:17:44.047Z,8.96
2023-04-12T07:22:46.723Z,9.27
2023-04-12T07:27:51.584Z,9.57
2023-04-12T07:33:00.269Z,9.90
2023-04-12T07:38:07.892Z,10.26
2023-04-12T07:43:10.418Z,10.55
2023-04-12T07:48:14.468Z,10.90
2023-04-12T07:53:22.367Z,11.20
2023-04-12T07:58:25.690Z,11.45
2023-04-12T08:03:29.596Z,11.68
2023-04-12T08:08:32.200Z,11.80
2023-04-12T08:13:35.846Z,11.99
2023-04-12T08:18:39.648Z,12.16
2023-04-12T08:23:42.237Z,12.37
2023-04-12T08:28:44.735Z,12.61
2023-04-12T08:33:48.551Z,12.83
2023-04-12T08:38:53.033Z,13.00
2023-04-12T08:43:56.481Z,13.16
2023-04-12T08:49:00.711Z,13.36
2023-04-12T08:54:03.198Z,13.53
2023-04-12T08:59:06.262Z,13.73
2023-04-12T09:04:10.328Z,13.87
2023-04-12T09:09:12.935Z,13.96
2023-04-12T09:14:23.023Z,14.13
2023-04-12T09:19:33.997Z,14.30
2023-04-12T09:24:47.008Z,14.48
2023-04-12T09:29:51.494Z,14.53
2023-04-12T09:34:58.435Z,14.57
2023-04-12T09:40:02.819Z,14.74
2023-04-12T09:45:23.935Z,14.82
2023-04-12T09:50:29.365Z,14.89
2023-04-12T09:55:32.997Z,14.83
2023-04-12T10:00:37.072Z,15.07
2023-04-12T10:05:42.224Z,15.17
2023-04-12T10:10:45.991Z,15.36
2023-04-12T10:15:51.606Z,15.60
2023-04-12T10:20:56.840Z,15.72
2023-04-12T10:26:00.877Z,15.81
2023-04-12T10:31:28.111Z,15.90
2023-04-12T10:36:53.927Z,16.05
2023-04-12T10:42:18.166Z,16.02
2023-04-12T10:47:58.885Z,15.96
2023-04-12T10:53:28.433Z,15.92
2023-04-12T10:58:56.284Z,16.02
2023-04-12T11:04:20.328Z,16.07
2023-04-12T11:09:26.304Z,16.08
2023-04-12T11:14:31.386Z,16.10
2023-04-12T11:19:34.271Z,16.09
2023-04-12T11:24:40.456Z,16.17
2023-04-12T11:29:43.439Z,16.07
2023-04-12T11:34:47.073Z,16.09
2023-04-12T11:39:53.202Z,16.11
2023-04-12T11:44:59.815Z,16.15
2023-04-12T11:50:04.661Z,16.17
2023-04-12T11:55:11.258Z,16.24
2023-04-12T12:00:15.320Z,16.29
2023-04-12T12:05:18.375Z,16.31
2023-04-12T12:10:37.765Z,16.22
2023-04-12T12:15:46.153Z,16.15
2023-04-12T12:20:50.334Z,16.16
2023-04-12T12:26:02.963Z,16.25
2023-04-12T12:31:13.175Z,16.36
2023-04-12T12:36:19.694Z,16.28
2023-04-12T12:41:24.929Z,16.23
2023-04-12T12:46:37.368Z,16.11
2023-04-12T12:51:51.229Z,15.93
2023-04-12T12:56:55.043Z,15.87
2023-04-12T13:01:57.567Z,15.79
2023-04-12T13:07:00.437Z,15.62
2023-04-12T13:12:04.307Z,15.63
2023-04-12T13:17:06.768Z,15.67
2023-04-12T13:22:09.443Z,15.64
2023-04-12T13:27:15.126Z,15.72
2023-04-12T13:32:18.568Z,15.77
2023-04-12T13:37:21.084Z,15.80
2023-04-12T13:42:24.941Z,15.74
2023-04-12T13:47:27.697Z,15.55
2023-04-12T13:52:30.301Z,15.32
2023-04-12T13:57:34.149Z,15.13
2023-04-12T14:02:36.787Z,15.03
2023-04-12T14:07:39.400Z,14.98
2023-04-12T14:12:43.253Z,14.87
2023-04-12T14:17:46.156Z,14.69
2023-04-12T14:22:48.844Z,14.58
2023-04-12T14:27:52.656Z,14.54
2023-04-12T14:32:55.548Z,14.33
2023-04-12T14:37:58.079Z,14.11
2023-04-12T14:43:01.927Z,14.01
2023-04-12T14:48:04.727Z,13.82
2023-04-12T14:53:09.662Z,13.68
2023-04-12T14:58:13.852Z,13.66
2023-04-12T15:03:17.005Z,13.58
2023-04-12T15:08:19.756Z,13.49
2023-04-12T15:13:27.670Z,13.36
2023-04-12T15:18:31.352Z,13.27
2023-04-12T15:23:33.948Z,13.15
2023-04-12T15:28:38.119Z,13.07
2023-04-12T15:33:40.652Z,13.10
2023-04-12T15:38:44.707Z,13.11
2023-04-12T15:43:49.288Z,13.11
2023-04-12T15:48:51.779Z,13.07
2023-04-12T15:53:54.508Z,12.98
2023-04-12T15:58:58.867Z,12.96
2023-04-12T16:04:03.049Z,12.94
2023-04-12T16:09:06.680Z,12.96
2023-04-12T16:14:10.596Z,12.92
2023-04-12T16:19:13.318Z,12.77
2023-04-12T16:24:15.836Z,12.71
2023-04-12T16:29:19.812Z,12.65
2023-04-12T16:34:22.527Z,12.57
2023-04-12T16:39:25.058Z,12.61
2023-04-12T16:44:28.942Z,12.68
2023-04-12T16:49:32.045Z,12.90
2023-04-12T16:54:34.615Z,13.01
2023-04-12T16:59:39.852Z,13.10
2023-04-12T17:04:42.383Z,13.06
2023-04-12T17:09:45.176Z,13.08
2023-04-12T17:14:51.215Z,13.36
2023-04-12T17:19:53.744Z,13.58
2023-04-12T17:24:56.546Z,13.59
2023-04-12T17:30:00.405Z,13.65
2023-04-12T17:35:02.969Z,13.63
2023-04-12T17:40:06.829Z,13.68
2023-04-12T17:45:12.654Z,13.68
2023-04-12T17:50:15.672Z,13.76
2023-04-12T17:55:19.777Z,13.85
2023-04-12T18:00:24.330Z,13.91
2023-04-12T18:05:27.773Z,13.92
2023-04-12T18:10:30.342Z,13.94
2023-04-12T18:15:34.214Z,13.87
2023-04-12T18:20:36.812Z,13.55
2023-04-12T18:25:39.600Z,13.10
2023-04-12T18:30:43.531Z,12.70
2023-04-12T18:35:46.093Z,12.42
2023-04-12T18:40:48.836Z,12.21
2023-04-12T18:45:52.801Z,12.02
2023-04-12T18:50:57.375Z,11.77
2023-04-12T18:56:08.559Z,11.66
2023-04-12T19:01:13.710Z,11.60
2023-04-12T19:06:16.970Z,11.52
2023-04-12T19:11:19.514Z,11.60
2023-04-12T19:16:24.526Z,11.67
2023-04-12T19:21:29.194Z,11.68
2023-04-12T19:26:31.977Z,11.70
2023-04-12T19:31:35.883Z,11.73
2023-04-12T19:36:38.522Z,11.75
2023-04-12T19:41:41.195Z,11.79
2023-04-12T19:46:45.215Z,11.80
2023-04-12T19:51:48.253Z,11.78
2023-04-12T19:56:52.551Z,11.71
2023-04-12T20:01:58.037Z,11.70
2023-04-12T20:07:01.011Z,11.68
2023-04-12T20:12:03.888Z,11.64
2023-04-12T20:17:08.040Z,11.60
2023-04-12T20:22:10.974Z,11.54
2023-04-12T20:27:16.868Z,11.52
2023-04-12T20:32:20.835Z,11.50
2023-04-12T20:37:23.433Z,11.50
2023-04-12T20:42:26.008Z,11.52
2023-04-12T20:47:30.011Z,11.51
2023-04-12T20:52:32.593Z,11.51
2023-04-12T20:57:35.883Z,11.50
2023-04-12T21:02:40.582Z,11.50
2023-04-12T21:07:43.366Z,11.48
2023-04-12T21:12:47.046Z,11.46
2023-04-12T21:17:52.244Z,11.45
2023-04-12T21:22:54.887Z,11.44
2023-04-12T21:27:57.416Z,11.39
2023-04-12T21:33:02.253Z,11.34
2023-04-12T21:38:04.822Z,11.24
2023-04-12T21:43:07.780Z,11.18
2023-04-12T21:48:14.162Z,11.16
2023-04-12T21:53:16.821Z,11.14
2023-04-12T21:58:19.303Z,11.12
2023-04-12T22:03:23.213Z,11.10
2023-04-12T22:08:26.220Z,11.05
2023-04-12T22:13:28.851Z,11.02
2023-04-12T22:18:32.778Z,10.99
2023-04-12T22:23:38.638Z,10.98
2023-04-12T22:28:41.286Z,10.97
2023-04-12T22:33:47.712Z,10.95
2023-04-12T22:38:50.590Z,10.93
2023-04-12T22:44:01.167Z,10.92
2023-04-12T22:49:05.657Z,10.91
2023-04-12T22:54:09.316Z,10.90
2023-04-12T22:59:13.676Z,10.87
2023-04-12T23:04:18.436Z,10.86
2023-04-12T23:09:21.054Z,10.83
2023-04-12T23:14:23.841Z,10.78
2023-04-12T23:19:28.919Z,10.73
2023-04-12T23:24:31.456Z,10.68
2023-04-12T23:29:34.979Z,10.66
2023-04-12T23:34:38.795Z,10.67
2023-04-12T23:39:41.566Z,10.69
2023-04-12T23:44:44.064Z,10.67
2023-04-12T23:49:47.898Z,10.64
2023-04-12T23:54:50.415Z,10.70
2023-04-12T23:59:52.974Z,10.71
